createdAt,value
2023-04-22T00:02:26.551Z,31.50
2023-04-22T00:04:53.828Z,30.13
2023-04-22T00:07:21.122Z,27.10
2023-04-22T00:09:48.091Z,28.02
2023-04-22T00:12:15.155Z,29.05
2023-04-22T00:14:42.071Z,28.45
2023-04-22T00:17:10.532Z,29.58
2023-04-22T00:19:37.676Z,29.23
2023-04-22T00:22:04.835Z,29.88
2023-04-22T00:24:31.764Z,29.13
2023-04-22T00:26:58.837Z,26.13
2023-04-22T00:29:25.888Z,26.90
2023-04-22T00:31:52.868Z,26.92
2023-04-22T00:34:21.254Z,28.63
2023-04-22T00:36:48.254Z,29.05
2023-04-22T00:39:15.319Z,27.55
2023-04-22T00:41:42.807Z,27.27
2023-04-22T00:44:10.494Z,25.02
2023-04-22T00:46:38.675Z,28.48
2023-04-22T00:49:06.116Z,30.08
2023-04-22T00:51:34.574Z,31.05
2023-04-22T00:54:01.576Z,29.27
2023-04-22T00:56:30.042Z,29.52
2023-04-22T00:58:57.571Z,29.42
2023-04-22T01:01:25.257Z,29.10
2023-04-22T01:03:52.905Z,28.33
2023-04-22T01:06:20.302Z,26.20
2023-04-22T01:08:48.787Z,26.90
2023-04-22T01:11:15.962Z,28.60
2023-04-22T01:13:43.120Z,29.00
2023-04-22T01:16:10.773Z,30.08
2023-04-22T01:18:37.861Z,30.02
2023-04-22T01:21:05.065Z,30.63
2023-04-22T01:23:34.067Z,29.88
2023-04-22T01:26:01.140Z,29.55
2023-04-22T01:28:28.989Z,27.17
2023-04-22T01:30:56.298Z,27.17
2023-04-22T01:33:23.572Z,27.42
2023-04-22T01:35:50.596Z,27.95
2023-04-22T01:38:17.695Z,27.50
2023-04-22T01:40:46.037Z,27.42
2023-04-22T01:43:13.015Z,25.70
2023-04-22T01:45:40.070Z,28.23
2023-04-22T01:48:07.123Z,30.58
2023-04-22T01:50:34.362Z,30.10
2023-04-22T01:53:01.535Z,30.33
2023-04-22T01:55:28.482Z,28.05
2023-04-22T01:57:56.754Z,28.73
2023-04-22T02:00:23.710Z,26.45
2023-04-22T02:02:50.792Z,26.35
2023-04-22T02:05:18.071Z,29.40
2023-04-22T02:07:45.007Z,28.92
2023-04-22T02:10:12.565Z,29.42
2023-04-22T02:12:39.559Z,31.88
2023-04-22T02:15:09.405Z,30.17
2023-04-22T02:17:36.335Z,27.40
2023-04-22T02:20:03.644Z,28.27
2023-04-22T02:22:31.261Z,30.52
2023-04-22T02:24:58.429Z,32.22
2023-04-22T02:27:25.451Z,32.25
2023-04-22T02:29:52.414Z,31.08
2023-04-22T02:32:20.789Z,31.15
2023-04-22T02:34:48.560Z,29.80
2023-04-22T02:37:15.526Z,31.65
2023-04-22T02:39:42.581Z,32.65
2023-04-22T02:42:09.629Z,31.50
2023-04-22T02:44:36.602Z,31.20
2023-04-22T02:47:03.748Z,30.27
2023-04-22T02:49:32.234Z,28.98
2023-04-22T02:51:59.149Z,32.15
2023-04-22T02:54:26.087Z,28.52
2023-04-22T02:56:53.035Z,30.98
2023-04-22T02:59:19.988Z,28.60
2023-04-22T03:01:46.991Z,29.00
2023-04-22T03:04:15.521Z,27.25
2023-04-22T03:06:44.056Z,26.98
2023-04-22T03:09:10.997Z,28.20
2023-04-22T03:11:37.905Z,29.33
2023-04-22T03:14:04.902Z,30.63
2023-04-22T03:16:32.946Z,30.63
2023-04-22T03:18:59.943Z,30.70
2023-04-22T03:21:26.909Z,30.30
2023-04-22T03:23:55.377Z,28.90
2023-04-22T03:26:22.307Z,30.02
2023-04-22T03:28:49.233Z,30.48
2023-04-22T03:31:16.184Z,31.00
2023-04-22T03:33:43.282Z,28.50
2023-04-22T03:36:10.239Z,27.48
2023-04-22T03:38:37.238Z,27.63
2023-04-22T03:41:05.662Z,27.83
2023-04-22T03:43:32.597Z,27.02
2023-04-22T03:46:00.145Z,28.80
2023-04-22T03:48:27.182Z,30.35
2023-04-22T03:50:54.160Z,29.45
2023-04-22T03:53:21.085Z,31.33
2023-04-22T03:55:48.018Z,29.90
2023-04-22T03:58:16.399Z,32.03
2023-04-22T04:00:43.277Z,32.08
2023-04-22T04:03:10.590Z,32.60
2023-04-22T04:05:37.777Z,32.10
2023-04-22T04:08:04.866Z,32.83
2023-04-22T04:10:31.839Z,34.53
2023-04-22T04:12:58.802Z,35.20
2023-04-22T04:15:27.156Z,35.72
2023-04-22T04:17:54.090Z,33.58
2023-04-22T04:20:21.103Z,34.42
2023-04-22T04:22:48.024Z,36.42
2023-04-22T04:25:14.967Z,34.92
2023-04-22T04:27:41.890Z,36.05
2023-04-22T04:30:09.836Z,36.63
2023-04-22T04:32:38.256Z,36.17
2023-04-22T04:35:06.084Z,36.47
2023-04-22T04:37:33.040Z,31.90
2023-04-22T04:39:59.973Z,32.65
2023-04-22T04:42:26.840Z,32.97
2023-04-22T04:44:53.814Z,35.42
2023-04-22T04:47:20.776Z,35.80
2023-04-22T04:49:49.115Z,36.88
2023-04-22T04:52:16.066Z,38.40
2023-04-22T04:54:42.976Z,40.25
2023-04-22T04:57:09.910Z,40.78
2023-04-22T04:59:36.977Z,41.42
2023-04-22T05:02:04.128Z,39.65
2023-04-22T05:04:31.357Z,39.75
2023-04-22T05:06:59.842Z,42.90
2023-04-22T05:09:26.715Z,38.92
2023-04-22T05:11:53.649Z,39.42
2023-04-22T05:14:20.533Z,41.10
2023-04-22T05:16:47.558Z,41.20
2023-04-22T05:19:14.532Z,40.40
2023-04-22T05:21:41.444Z,40.80
2023-04-22T05:24:09.821Z,40.20
2023-04-22T05:26:36.804Z,39.92
2023-04-22T05:29:03.718Z,40.90
2023-04-22T05:31:30.801Z,40.38
2023-04-22T05:33:57.765Z,42.72
2023-04-22T05:36:24.839Z,44.00
2023-04-22T05:38:51.727Z,41.45
2023-04-22T05:41:20.055Z,41.22
2023-04-22T05:43:46.982Z,40.28
2023-04-22T05:46:14.336Z,42.40
2023-04-22T05:48:41.367Z,42.33
2023-04-22T05:51:08.465Z,42.70
2023-04-22T05:53:35.434Z,42.05
2023-04-22T05:56:02.501Z,40.58
2023-04-22T05:58:30.841Z,40.75
2023-04-22T06:00:57.784Z,41.17
2023-04-22T06:03:25.103Z,43.28
2023-04-22T06:05:52.240Z,41.97
2023-04-22T06:08:19.292Z,40.53
2023-04-22T06:10:46.212Z,57.78
2023-04-22T06:13:13.177Z,224.52
2023-04-22T06:15:41.523Z,142.63
2023-04-22T06:18:08.697Z,68.32
2023-04-22T06:20:36.677Z,63.03
2023-04-22T06:23:03.618Z,50.75
2023-04-22T06:25:30.533Z,36.85
2023-04-22T06:27:58.135Z,37.15
2023-04-22T06:30:25.186Z,38.45
2023-04-22T06:32:53.661Z,39.00
2023-04-22T06:35:20.613Z,37.65
2023-04-22T06:37:47.764Z,44.30
2023-04-22T06:40:15.222Z,42.20
2023-04-22T06:42:42.118Z,39.75
2023-04-22T06:45:09.675Z,38.88
2023-04-22T06:47:36.615Z,39.83
2023-04-22T06:50:06.095Z,39.05
2023-04-22T06:52:38.541Z,37.50
2023-04-22T06:55:06.100Z,36.90
2023-04-22T06:57:33.036Z,37.13
2023-04-22T06:59:59.971Z,38.50
2023-04-22T07:02:27.123Z,37.28
2023-04-22T07:04:54.133Z,37.42
2023-04-22T07:07:22.457Z,35.88
2023-04-22T07:09:49.348Z,34.63
2023-04-22T07:12:16.449Z,33.67
2023-04-22T07:14:43.938Z,35.10
2023-04-22T07:17:11.337Z,33.65
2023-04-22T07:19:39.347Z,33.15
2023-04-22T07:22:06.561Z,31.63
2023-04-22T07:24:34.923Z,33.50
2023-04-22T07:27:01.844Z,32.38
2023-04-22T07:29:28.807Z,33.03
2023-04-22T07:31:55.766Z,33.03
2023-04-22T07:34:22.744Z,34.10
2023-04-22T07:36:50.614Z,30.15
2023-04-22T07:39:17.604Z,30.17
2023-04-22T07:41:45.970Z,34.60
2023-04-22T07:44:12.871Z,34.45
2023-04-22T07:46:39.789Z,31.73
2023-04-22T07:49:06.765Z,30.02
2023-04-22T07:51:33.747Z,28.85
2023-04-22T07:54:00.789Z,29.10
2023-04-22T07:56:27.793Z,32.47
2023-04-22T07:58:56.171Z,26.05
2023-04-22T08:01:23.213Z,25.27
2023-04-22T08:03:50.479Z,27.35
2023-04-22T08:06:17.777Z,23.30
2023-04-22T08:08:44.671Z,21.75
2023-04-22T08:11:11.675Z,20.75
2023-04-22T08:13:38.621Z,21.08
2023-04-22T08:16:07.108Z,21.75
2023-04-22T08:18:34.153Z,19.77
2023-04-22T08:21:01.349Z,19.40
2023-04-22T08:23:28.294Z,20.67
2023-04-22T08:25:55.352Z,21.17
2023-04-22T08:28:22.296Z,18.35
2023-04-22T08:30:49.288Z,19.77
2023-04-22T08:33:17.670Z,19.58
2023-04-22T08:35:44.664Z,19.77
2023-04-22T08:38:11.697Z,18.92
2023-04-22T08:40:41.104Z,19.50
2023-04-22T08:43:08.507Z,60.67
2023-04-22T08:45:37.570Z,20.50
2023-04-22T08:48:05.385Z,20.20
2023-04-22T08:50:36.002Z,17.92
2023-04-22T08:53:03.203Z,19.73
2023-04-22T08:55:31.067Z,17.25
2023-04-22T08:58:00.626Z,15.52
2023-04-22T09:00:27.821Z,15.57
2023-04-22T09:02:55.344Z,13.90
2023-04-22T09:05:24.775Z,13.93
2023-04-22T09:07:54.479Z,14.35
2023-04-22T09:10:21.560Z,13.82
2023-04-22T09:12:49.501Z,15.10
2023-04-22T09:15:16.903Z,14.50
2023-04-22T09:17:43.886Z,15.68
2023-04-22T09:20:11.545Z,15.45
2023-04-22T09:22:40.277Z,16.58
2023-04-22T09:25:16.024Z,16.42
2023-04-22T09:27:43.414Z,15.35
2023-04-22T09:30:10.944Z,16.55
2023-04-22T09:32:39.618Z,16.55
2023-04-22T09:35:07.446Z,17.85
2023-04-22T09:37:46.668Z,18.13
2023-04-22T09:40:19.277Z,18.33
2023-04-22T09:42:51.021Z,21.15
2023-04-22T09:45:29.198Z,20.52
2023-04-22T09:47:57.685Z,21.70
2023-04-22T09:50:28.864Z,21.58
2023-04-22T09:52:57.569Z,21.13
2023-04-22T09:55:28.403Z,22.25
2023-04-22T09:57:58.021Z,22.92
2023-04-22T10:00:28.268Z,22.65
2023-04-22T10:02:55.333Z,23.58
2023-04-22T10:05:22.379Z,22.48
2023-04-22T10:07:49.536Z,23.20
2023-04-22T10:10:16.658Z,24.20
2023-04-22T10:12:46.999Z,22.40
2023-04-22T10:15:14.075Z,23.80
2023-04-22T10:17:42.174Z,24.52
2023-04-22T10:20:12.880Z,25.80
2023-04-22T10:22:41.734Z,25.80
2023-04-22T10:25:12.667Z,25.73
2023-04-22T10:27:39.915Z,26.27
2023-04-22T10:30:10.540Z,27.05
2023-04-22T10:32:37.574Z,25.92
2023-04-22T10:35:09.880Z,25.88
2023-04-22T10:37:37.121Z,24.65
2023-04-22T10:40:09.293Z,25.48
2023-04-22T10:42:38.913Z,22.08
2023-04-22T10:45:11.784Z,22.35
2023-04-22T10:47:39.450Z,22.73
2023-04-22T10:50:19.592Z,23.27
2023-04-22T10:52:50.128Z,22.25
2023-04-22T10:55:17.293Z,22.77
2023-04-22T10:57:45.468Z,22.83
2023-04-22T11:00:35.278Z,22.35
2023-04-22T11:03:11.666Z,22.63
2023-04-22T11:05:40.089Z,25.00
2023-04-22T11:08:11.548Z,22.50
2023-04-22T11:10:44.318Z,22.80
2023-04-22T11:13:13.389Z,23.65
2023-04-22T11:15:43.795Z,24.77
2023-04-22T11:18:17.345Z,23.52
2023-04-22T11:20:44.445Z,23.65
2023-04-22T11:23:11.499Z,24.02
2023-04-22T11:25:38.513Z,23.98
2023-04-22T11:28:06.066Z,24.27
2023-04-22T11:30:33.050Z,26.77
2023-04-22T11:33:01.408Z,28.73
2023-04-22T11:35:30.991Z,32.08
2023-04-22T11:38:00.494Z,34.17
2023-04-22T11:40:32.087Z,35.10
2023-04-22T11:43:02.118Z,33.10
2023-04-22T11:45:31.505Z,34.88
2023-04-22T11:47:59.032Z,35.85
2023-04-22T11:50:30.591Z,34.75
2023-04-22T11:52:58.754Z,36.63
2023-04-22T11:55:30.392Z,35.47
2023-04-22T11:57:59.382Z,33.05
2023-04-22T12:00:30.549Z,36.13
2023-04-22T12:02:59.843Z,35.08
2023-04-22T12:05:36.220Z,34.50
2023-04-22T12:08:06.171Z,34.70
2023-04-22T12:10:33.200Z,34.95
2023-04-22T12:13:01.030Z,33.75
2023-04-22T12:15:38.137Z,33.53
2023-04-22T12:18:05.214Z,35.78
2023-04-22T12:20:34.642Z,37.67
2023-04-22T12:23:01.709Z,37.42
2023-04-22T12:25:28.780Z,36.05
2023-04-22T12:27:55.948Z,35.60
2023-04-22T12:30:23.184Z,35.40
2023-04-22T12:32:50.257Z,36.83
2023-04-22T12:35:17.567Z,37.05
2023-04-22T12:37:46.047Z,36.33
2023-04-22T12:40:12.985Z,33.08
2023-04-22T12:42:39.970Z,34.05
2023-04-22T12:45:08.046Z,36.03
2023-04-22T12:47:43.310Z,38.55
2023-04-22T12:50:10.517Z,36.80
2023-04-22T12:52:37.507Z,43.30
2023-04-22T12:55:08.299Z,34.60
2023-04-22T12:57:36.680Z,32.20
2023-04-22T13:00:04.795Z,30.95
2023-04-22T13:02:32.093Z,32.42
2023-04-22T13:05:03.740Z,31.83
2023-04-22T13:07:31.470Z,31.45
2023-04-22T13:09:58.764Z,30.40
2023-04-22T13:12:26.982Z,32.13
2023-04-22T13:14:54.271Z,32.60
2023-04-22T13:17:22.040Z,33.58
2023-04-22T13:19:50.159Z,32.08
2023-04-22T13:22:18.710Z,34.42
2023-04-22T13:24:45.817Z,33.65
2023-04-22T13:27:13.480Z,36.33
2023-04-22T13:29:41.814Z,36.42
2023-04-22T13:32:09.548Z,35.35
2023-04-22T13:34:36.822Z,33.75
2023-04-22T13:37:04.233Z,34.50
2023-04-22T13:39:33.161Z,36.47
2023-04-22T13:49:03.873Z,34.55
2023-04-22T14:02:46.407Z,39.40
2023-04-22T14:05:13.667Z,41.72
2023-04-22T14:07:40.720Z,35.70
2023-04-22T14:10:09.385Z,35.08
2023-04-22T14:12:36.424Z,36.47
2023-04-22T14:15:03.904Z,34.92
2023-04-22T14:17:30.879Z,28.73
2023-04-22T14:19:59.348Z,31.08
2023-04-22T14:22:26.710Z,30.42
2023-04-22T14:24:53.837Z,31.80
2023-04-22T14:27:20.877Z,29.42
2023-04-22T14:29:47.966Z,32.10
2023-04-22T14:32:17.392Z,30.50
2023-04-22T14:34:45.631Z,30.45
2023-04-22T14:37:14.010Z,30.90
2023-04-22T14:39:41.606Z,29.27
2023-04-22T14:42:09.045Z,27.60
2023-04-22T14:44:36.043Z,27.80
2023-04-22T14:47:03.389Z,26.10
2023-04-22T14:49:32.628Z,26.42
2023-04-22T14:52:00.520Z,25.65
2023-04-22T14:54:29.220Z,24.83
2023-04-22T14:56:57.480Z,24.27
2023-04-22T14:59:24.721Z,24.00
2023-04-22T15:01:51.726Z,23.13
2023-04-22T15:04:18.952Z,22.27
2023-04-22T15:06:46.038Z,24.35
2023-04-22T15:09:13.196Z,24.92
2023-04-22T15:11:41.694Z,25.48
2023-04-22T15:14:08.630Z,26.40
2023-04-22T15:16:36.050Z,25.67
2023-04-22T15:19:03.108Z,26.80
2023-04-22T15:21:30.088Z,25.88
2023-04-22T15:23:57.085Z,23.13
2023-04-22T15:26:27.138Z,20.95
2023-04-22T15:28:55.515Z,23.52
2023-04-22T15:31:22.495Z,24.00
2023-04-22T15:33:49.665Z,23.90
2023-04-22T15:36:16.935Z,25.52
2023-04-22T15:38:43.906Z,24.25
2023-04-22T15:41:11.045Z,23.73
2023-04-22T15:43:37.937Z,23.27
2023-04-22T15:46:06.370Z,23.55
2023-04-22T15:48:33.379Z,23.70
2023-04-22T15:51:00.369Z,21.77
2023-04-22T15:53:27.380Z,21.70
2023-04-22T15:55:54.442Z,21.35
2023-04-22T15:58:21.415Z,19.23
2023-04-22T16:00:48.379Z,20.38
2023-04-22T16:03:16.928Z,21.05
2023-04-22T16:05:43.876Z,20.30
2023-04-22T16:08:10.861Z,18.73
2023-04-22T16:10:37.919Z,21.60
2023-04-22T16:13:04.873Z,19.10
2023-04-22T16:15:32.086Z,19.02
2023-04-22T16:17:59.178Z,19.02
2023-04-22T16:20:27.830Z,19.83
2023-04-22T16:22:54.787Z,20.50
2023-04-22T16:25:21.971Z,19.98
2023-04-22T16:27:49.098Z,19.52
2023-04-22T16:30:16.439Z,19.38
2023-04-22T16:32:43.691Z,19.77
2023-04-22T16:35:10.764Z,18.58
2023-04-22T16:37:39.361Z,20.23
2023-04-22T16:40:07.894Z,18.73
2023-04-22T16:42:35.041Z,19.80
2023-04-22T16:45:02.378Z,18.45
2023-04-22T16:47:29.730Z,18.23
2023-04-22T16:49:56.773Z,18.58
2023-04-22T16:52:23.768Z,18.50
2023-04-22T16:54:52.352Z,17.25
2023-04-22T16:57:19.430Z,18.38
2023-04-22T16:59:46.419Z,17.65
2023-04-22T17:02:13.453Z,19.02
2023-04-22T17:04:40.461Z,18.42
2023-04-22T17:07:07.580Z,18.73
2023-04-22T17:09:34.769Z,17.65
2023-04-22T17:12:03.325Z,19.00
2023-04-22T17:14:30.316Z,18.58
2023-04-22T17:16:57.252Z,19.45
2023-04-22T17:19:24.609Z,17.73
2023-04-22T17:21:51.601Z,19.40
2023-04-22T17:24:21.082Z,21.17
2023-04-22T17:26:49.360Z,20.17
2023-04-22T17:29:17.696Z,25.63
2023-04-22T17:31:44.781Z,21.60
2023-04-22T17:34:11.914Z,25.85
2023-04-22T17:36:39.069Z,21.45
2023-04-22T17:39:06.042Z,23.55
2023-04-22T17:41:32.970Z,27.52
2023-04-22T17:43:59.940Z,29.33
2023-04-22T17:46:28.481Z,28.17
2023-04-22T17:48:55.614Z,28.13
2023-04-22T17:51:22.719Z,28.98
2023-04-22T17:53:49.706Z,28.80
2023-04-22T17:56:16.831Z,31.95
2023-04-22T17:58:43.812Z,33.03
2023-04-22T18:01:10.851Z,32.92
2023-04-22T18:03:39.332Z,31.65
2023-04-22T18:06:06.649Z,31.40
2023-04-22T18:08:33.698Z,32.08
2023-04-22T18:11:00.680Z,39.85
2023-04-22T18:13:27.871Z,33.17
2023-04-22T18:15:54.782Z,34.22
2023-04-22T18:18:21.938Z,32.75
2023-04-22T18:20:50.525Z,34.60
2023-04-22T18:23:17.582Z,32.33
2023-04-22T18:25:44.744Z,39.75
2023-04-22T18:28:11.733Z,33.30
2023-04-22T18:30:38.900Z,36.38
2023-04-22T18:33:06.295Z,41.97
2023-04-22T18:35:33.362Z,40.38
2023-04-22T18:38:02.167Z,36.53
2023-04-22T18:40:29.364Z,36.65
2023-04-22T18:42:57.489Z,36.85
2023-04-22T18:45:24.684Z,33.80
2023-04-22T18:47:51.847Z,36.00
2023-04-22T18:50:18.882Z,32.67
2023-04-22T18:52:46.029Z,34.42
2023-04-22T18:55:14.494Z,32.65
2023-04-22T18:57:41.668Z,33.47
2023-04-22T19:00:10.137Z,31.20
2023-04-22T19:02:39.868Z,29.50
2023-04-22T19:05:09.516Z,29.75
2023-04-22T19:07:36.721Z,31.73
2023-04-22T19:10:04.390Z,31.08
2023-04-22T19:12:32.976Z,31.38
2023-04-22T19:14:59.938Z,30.77
2023-04-22T19:17:26.951Z,36.30
2023-04-22T19:19:54.274Z,33.30
2023-04-22T19:22:22.223Z,31.80
2023-04-22T19:24:49.492Z,32.15
2023-04-22T19:27:16.755Z,29.75
2023-04-22T19:29:45.319Z,32.35
2023-04-22T19:32:12.388Z,29.70
2023-04-22T19:34:39.505Z,35.17
2023-04-22T19:37:06.852Z,28.98
2023-04-22T19:39:33.884Z,29.77
2023-04-22T19:42:02.147Z,32.63
2023-04-22T19:44:29.172Z,30.35
2023-04-22T19:46:57.787Z,28.50
2023-04-22T19:49:25.458Z,29.17
2023-04-22T19:51:53.701Z,28.00
2023-04-22T19:54:22.091Z,28.45
2023-04-22T19:56:49.856Z,28.73
2023-04-22T19:59:17.824Z,28.95
2023-04-22T20:01:45.617Z,29.55
2023-04-22T20:04:15.430Z,29.55
2023-04-22T20:06:44.332Z,28.65
2023-04-22T20:09:12.348Z,27.95
2023-04-22T20:11:40.733Z,28.08
2023-04-22T20:14:08.144Z,25.73
2023-04-22T20:16:35.760Z,24.52
2023-04-22T20:19:03.364Z,25.73
2023-04-22T20:21:34.269Z,25.40
2023-04-22T20:24:04.249Z,26.13
2023-04-22T20:26:32.356Z,25.10
2023-04-22T20:29:01.759Z,25.35
2023-04-22T20:31:29.098Z,25.83
2023-04-22T20:33:56.385Z,26.63
2023-04-22T20:36:24.287Z,26.25
2023-04-22T20:38:54.679Z,25.80
2023-04-22T20:41:23.687Z,28.23
2023-04-22T20:43:50.699Z,26.00
2023-04-22T20:46:17.917Z,28.42
2023-04-22T20:48:45.450Z,27.08
2023-04-22T20:51:12.786Z,28.02
2023-04-22T20:53:40.181Z,27.45
2023-04-22T20:56:08.771Z,27.75
2023-04-22T20:58:36.478Z,26.77
2023-04-22T21:01:03.692Z,26.48
2023-04-22T21:03:31.369Z,27.05
2023-04-22T21:05:59.970Z,27.33
2023-04-22T21:08:27.440Z,27.35
2023-04-22T21:10:55.986Z,25.55
2023-04-22T21:13:25.125Z,26.77
2023-04-22T21:15:57.765Z,25.17
2023-04-22T21:18:26.073Z,25.05
2023-04-22T21:20:55.513Z,26.55
2023-04-22T21:23:24.006Z,25.90
2023-04-22T21:25:53.114Z,25.52
2023-04-22T21:28:22.555Z,24.60
2023-04-22T21:30:51.798Z,24.17
2023-04-22T21:33:18.757Z,23.85
2023-04-22T21:35:46.221Z,24.00
2023-04-22T21:38:13.902Z,23.17
2023-04-22T21:40:40.921Z,25.38
2023-04-22T21:43:08.031Z,24.60
2023-04-22T21:45:35.458Z,24.58
2023-04-22T21:48:04.146Z,23.77
2023-04-22T21:50:31.710Z,24.15
2023-04-22T21:52:59.473Z,25.10
2023-04-22T21:55:26.593Z,24.48
2023-04-22T21:57:53.594Z,24.48
2023-04-22T22:00:20.894Z,24.77
2023-04-22T22:02:48.781Z,23.90
2023-04-22T22:05:17.313Z,23.90
2023-04-22T22:07:44.578Z,23.98
2023-04-22T22:10:13.682Z,23.70
2023-04-22T22:12:41.068Z,23.52
2023-04-22T22:15:09.222Z,24.00
2023-04-22T22:17:36.561Z,23.33
2023-04-22T22:20:04.178Z,23.23
2023-04-22T22:22:34.150Z,23.92
2023-04-22T22:25:01.380Z,22.13
2023-04-22T22:27:28.529Z,22.08
2023-04-22T22:29:55.510Z,22.70
2023-04-22T22:32:22.486Z,24.27
2023-04-22T22:34:49.647Z,24.27
2023-04-22T22:37:16.847Z,22.98
2023-04-22T22:39:45.188Z,23.20
2023-04-22T22:42:12.133Z,23.20
2023-04-22T22:44:39.354Z,22.88
2023-04-22T22:47:06.563Z,23.33
2023-04-22T22:49:33.776Z,23.40
2023-04-22T22:52:00.833Z,23.67
2023-04-22T22:54:27.831Z,24.50
2023-04-22T22:56:56.384Z,24.30
2023-04-22T22:59:23.517Z,24.38
2023-04-22T23:01:50.779Z,24.42
2023-04-22T23:04:18.000Z,24.27
2023-04-22T23:06:45.358Z,25.80
2023-04-22T23:09:12.492Z,25.13
2023-04-22T23:11:39.605Z,25.15
2023-04-22T23:14:08.198Z,25.58
2023-04-22T23:16:35.275Z,25.58
2023-04-22T23:19:02.967Z,25.98
2023-04-22T23:21:31.377Z,26.38
2023-04-22T23:24:00.142Z,25.48
2023-04-22T23:26:27.518Z,24.45
2023-04-22T23:28:55.058Z,25.33
2023-04-22T23:31:24.275Z,24.05
2023-04-22T23:33:55.417Z,25.42
2023-04-22T23:36:23.170Z,24.65
2023-04-22T23:38:50.369Z,26.23
2023-04-22T23:41:17.649Z,24.33
2023-04-22T23:43:44.643Z,22.92
2023-04-22T23:46:11.648Z,24.65
2023-04-22T23:48:40.233Z,24.23
2023-04-22T23:51:07.350Z,23.67
2023-04-22T23:53:34.395Z,23.75
2023-04-22T23:56:01.808Z,24.08
2023-04-22T23:58:29.254Z,23.25
